createdAt,value
2017-08-25T00:00:09.130Z,7.00
2017-08-25T00:01:09.881Z,9.00
2017-08-25T00:02:10.604Z,10.00
2017-08-25T00:03:11.326Z,9.00
2017-08-25T00:04:12.053Z,10.00
2017-08-25T00:05:12.776Z,8.00
2017-08-25T00:06:13.501Z,8.00
2017-08-25T00:07:14.221Z,8.00
2017-08-25T00:08:14.942Z,8.00
2017-08-25T00:09:15.688Z,11.00
2017-08-25T00:10:16.436Z,9.00
2017-08-25T00:11:17.157Z,8.00
2017-08-25T00:12:17.905Z,9.00
2017-08-25T00:13:18.631Z,8.00
2017-08-25T00:14:19.380Z,10.00
2017-08-25T00:15:20.126Z,9.00
2017-08-25T00:16:20.849Z,8.00
2017-08-25T00:17:21.570Z,10.00
2017-08-25T00:18:22.292Z,9.00
2017-08-25T00:19:23.016Z,9.00
2017-08-25T00:20:23.741Z,8.00
2017-08-25T00:21:24.464Z,9.00
2017-08-25T00:22:25.190Z,10.00
2017-08-25T00:23:25.911Z,7.00
2017-08-25T00:24:26.633Z,9.00
2017-08-25T00:25:27.358Z,9.00
2017-08-25T00:26:28.077Z,9.00
2017-08-25T00:27:28.802Z,10.00
2017-08-25T00:28:29.525Z,9.00
2017-08-25T00:29:30.272Z,9.00
2017-08-25T00:30:30.996Z,9.00
2017-08-25T00:31:31.717Z,8.00
2017-08-25T00:32:32.437Z,8.00
2017-08-25T00:33:33.158Z,9.00
2017-08-25T00:34:33.882Z,10.00
2017-08-25T00:35:34.626Z,8.00
2017-08-25T00:36:35.351Z,10.00
2017-08-25T00:37:36.073Z,8.00
2017-08-25T00:38:36.797Z,9.00
2017-08-25T00:39:37.520Z,8.00
2017-08-25T00:40:38.268Z,9.00
2017-08-25T00:41:38.987Z,9.00
2017-08-25T00:42:39.730Z,11.00
2017-08-25T00:43:40.475Z,9.00
2017-08-25T00:44:41.200Z,9.00
2017-08-25T00:45:41.921Z,9.00
2017-08-25T00:46:42.647Z,9.00
2017-08-25T00:47:43.398Z,9.00
2017-08-25T00:48:44.117Z,9.00
2017-08-25T00:49:44.840Z,9.00
2017-08-25T00:50:45.565Z,11.00
2017-08-25T00:51:46.306Z,8.00
2017-08-25T00:52:47.052Z,8.00
2017-08-25T00:53:47.772Z,8.00
2017-08-25T00:54:48.496Z,8.00
2017-08-25T00:55:49.218Z,8.00
2017-08-25T00:56:49.941Z,8.00
2017-08-25T00:57:50.682Z,11.00
2017-08-25T00:58:51.406Z,8.00
2017-08-25T00:59:52.148Z,9.00
2017-08-25T01:00:52.890Z,8.00
2017-08-25T01:01:53.613Z,9.00
2017-08-25T01:02:54.332Z,9.00
2017-08-25T01:03:55.055Z,10.00
2017-08-25T01:04:55.795Z,11.00
2017-08-25T01:05:56.540Z,9.00
2017-08-25T01:06:57.261Z,9.00
2017-08-25T01:07:57.986Z,11.00
2017-08-25T01:08:58.708Z,8.00
2017-08-25T01:09:59.429Z,10.00
2017-08-25T01:11:00.173Z,8.00
2017-08-25T01:12:00.915Z,9.00
2017-08-25T01:13:01.638Z,9.00
2017-08-25T01:14:02.357Z,7.00
2017-08-25T01:15:03.078Z,10.00
2017-08-25T01:16:03.801Z,8.00
2017-08-25T01:17:04.523Z,8.00
2017-08-25T01:18:05.242Z,8.00
2017-08-25T01:19:05.983Z,9.00
2017-08-25T01:20:06.704Z,11.00
2017-08-25T01:21:07.446Z,9.00
2017-08-25T01:22:08.169Z,9.00
2017-08-25T01:23:08.894Z,10.00
2017-08-25T01:24:09.633Z,10.00
2017-08-25T01:25:10.358Z,9.00
2017-08-25T01:26:11.082Z,9.00
2017-08-25T01:27:11.799Z,9.00
2017-08-25T01:28:12.524Z,9.00
2017-08-25T01:29:13.242Z,11.00
2017-08-25T01:30:13.965Z,9.00
2017-08-25T01:31:14.688Z,9.00
2017-08-25T01:32:15.430Z,10.00
2017-08-25T01:33:16.170Z,10.00
2017-08-25T01:34:16.896Z,9.00
2017-08-25T01:35:17.620Z,11.00
2017-08-25T01:36:18.362Z,9.00
2017-08-25T01:37:19.086Z,10.00
2017-08-25T01:38:19.811Z,10.00
2017-08-25T01:39:20.530Z,10.00
2017-08-25T01:40:21.253Z,11.00
2017-08-25T01:41:21.977Z,11.00
2017-08-25T01:42:22.699Z,12.00
2017-08-25T01:43:23.420Z,10.00
2017-08-25T01:44:24.144Z,10.00
2017-08-25T01:45:24.869Z,11.00
2017-08-25T01:46:25.588Z,8.00
2017-08-25T01:47:26.333Z,10.00
2017-08-25T01:48:27.056Z,11.00
2017-08-25T01:49:27.774Z,8.00
2017-08-25T01:50:28.500Z,9.00
2017-08-25T01:51:29.239Z,10.00
2017-08-25T01:52:29.959Z,10.00
2017-08-25T01:53:30.701Z,10.00
2017-08-25T01:54:31.424Z,10.00
2017-08-25T01:55:32.146Z,10.00
2017-08-25T01:56:32.888Z,9.00
2017-08-25T01:57:33.630Z,10.00
2017-08-25T01:58:34.372Z,9.00
2017-08-25T01:59:35.093Z,9.00
2017-08-25T02:00:35.815Z,11.00
2017-08-25T02:01:36.538Z,10.00
2017-08-25T02:02:37.266Z,10.00
2017-08-25T02:03:37.983Z,10.00
2017-08-25T02:04:38.709Z,9.00
2017-08-25T02:05:39.433Z,10.00
2017-08-25T02:06:40.153Z,10.00
2017-08-25T02:07:40.874Z,10.00
2017-08-25T02:08:41.598Z,10.00
2017-08-25T02:09:42.323Z,10.00
2017-08-25T02:10:43.044Z,11.00
2017-08-25T02:11:43.787Z,10.00
2017-08-25T02:12:44.511Z,9.00
2017-08-25T02:13:45.251Z,9.00
2017-08-25T02:14:45.970Z,9.00
2017-08-25T02:15:46.694Z,11.00
2017-08-25T02:16:47.419Z,10.00
2017-08-25T02:17:48.140Z,10.00
2017-08-25T02:18:48.867Z,12.00
2017-08-25T02:19:49.612Z,9.00
2017-08-25T02:20:50.355Z,11.00
2017-08-25T02:21:51.081Z,10.00
2017-08-25T02:22:51.819Z,11.00
2017-08-25T02:23:52.543Z,10.00
2017-08-25T02:24:53.264Z,10.00
2017-08-25T02:25:53.985Z,12.00
2017-08-25T02:26:54.707Z,9.00
2017-08-25T02:27:55.432Z,11.00
2017-08-25T02:28:56.178Z,11.00
2017-08-25T02:29:56.900Z,11.00
2017-08-25T02:30:57.622Z,10.00
2017-08-25T02:31:58.344Z,9.00
2017-08-25T02:32:59.066Z,10.00
2017-08-25T02:33:59.792Z,11.00
2017-08-25T02:35:00.512Z,9.00
2017-08-25T02:36:01.257Z,9.00
2017-08-25T02:37:01.998Z,10.00
2017-08-25T02:38:02.720Z,11.00
2017-08-25T02:39:03.444Z,10.00
2017-08-25T02:40:04.167Z,10.00
2017-08-25T02:41:04.891Z,9.00
2017-08-25T02:42:05.612Z,9.00
2017-08-25T02:43:06.357Z,10.00
2017-08-25T02:44:07.078Z,10.00
2017-08-25T02:45:07.801Z,9.00
2017-08-25T02:46:08.537Z,11.00
2017-08-25T02:47:09.263Z,11.00
2017-08-25T02:48:09.984Z,13.00
2017-08-25T02:49:10.707Z,10.00
2017-08-25T02:50:11.453Z,13.00
2017-08-25T02:51:12.191Z,10.00
2017-08-25T02:52:12.914Z,10.00
2017-08-25T02:53:13.637Z,11.00
2017-08-25T02:54:14.356Z,12.00
2017-08-25T02:55:15.079Z,13.00
2017-08-25T02:56:15.821Z,10.00
2017-08-25T02:57:16.549Z,11.00
2017-08-25T02:58:17.292Z,13.00
2017-08-25T02:59:18.012Z,13.00
2017-08-25T03:00:18.738Z,12.00
2017-08-25T03:01:19.481Z,13.00
2017-08-25T03:02:20.205Z,11.00
2017-08-25T03:03:20.923Z,11.00
2017-08-25T03:04:21.644Z,13.00
2017-08-25T03:05:22.368Z,10.00
2017-08-25T03:06:23.092Z,12.00
2017-08-25T03:07:23.811Z,12.00
2017-08-25T03:08:24.533Z,11.00
2017-08-25T03:09:25.259Z,11.00
2017-08-25T03:10:25.981Z,10.00
2017-08-25T03:11:26.705Z,12.00
2017-08-25T03:12:27.429Z,9.00
2017-08-25T03:13:28.148Z,13.00
2017-08-25T03:14:28.874Z,12.00
2017-08-25T03:15:29.599Z,13.00
2017-08-25T03:16:30.319Z,12.00
2017-08-25T03:17:31.042Z,13.00
2017-08-25T03:18:31.764Z,12.00
2017-08-25T03:19:32.485Z,12.00
2017-08-25T03:20:33.225Z,11.00
2017-08-25T03:21:33.950Z,10.00
2017-08-25T03:22:34.693Z,13.00
2017-08-25T03:23:35.434Z,12.00
2017-08-25T03:24:36.160Z,13.00
2017-08-25T03:25:36.879Z,12.00
2017-08-25T03:28:15.452Z,12.00
2017-08-25T03:29:16.170Z,11.00
2017-08-25T03:30:16.893Z,12.00
2017-08-25T03:31:17.619Z,13.00
2017-08-25T03:32:18.341Z,14.00
2017-08-25T03:33:19.063Z,12.00
2017-08-25T03:34:19.783Z,12.00
2017-08-25T03:35:20.507Z,12.00
2017-08-25T03:36:21.252Z,11.00
2017-08-25T03:37:21.976Z,12.00
2017-08-25T03:38:22.696Z,12.00
2017-08-25T03:39:23.417Z,12.00
2017-08-25T03:40:24.137Z,13.00
2017-08-25T03:41:24.858Z,12.00
2017-08-25T03:42:25.581Z,14.00
2017-08-25T03:43:26.323Z,11.00
2017-08-25T03:44:27.048Z,12.00
2017-08-25T03:45:27.770Z,12.00
2017-08-25T03:46:28.488Z,11.00
2017-08-25T03:47:29.210Z,11.00
2017-08-25T03:48:29.931Z,13.00
2017-08-25T03:49:30.656Z,12.00
2017-08-25T03:50:31.380Z,13.00
2017-08-25T03:51:32.102Z,12.00
2017-08-25T03:52:32.822Z,13.00
2017-08-25T03:53:33.547Z,12.00
2017-08-25T03:54:34.269Z,13.00
2017-08-25T03:55:34.990Z,12.00
2017-08-25T03:56:35.710Z,13.00
2017-08-25T03:57:36.455Z,11.00
2017-08-25T03:58:37.199Z,12.00
2017-08-25T03:59:37.920Z,14.00
2017-08-25T04:00:38.641Z,12.00
2017-08-25T04:01:39.366Z,13.00
2017-08-25T04:02:40.107Z,15.00
2017-08-25T04:03:40.833Z,13.00
2017-08-25T04:04:41.557Z,14.00
2017-08-25T04:05:42.291Z,13.00
2017-08-25T04:06:43.021Z,14.00
2017-08-25T04:07:43.745Z,13.00
2017-08-25T04:08:44.471Z,13.00
2017-08-25T04:09:45.210Z,13.00
2017-08-25T04:10:45.931Z,12.00
2017-08-25T04:11:46.654Z,12.00
2017-08-25T04:12:47.379Z,13.00
2017-08-25T04:13:48.131Z,13.00
2017-08-25T04:14:48.847Z,13.00
2017-08-25T04:15:49.568Z,11.00
2017-08-25T04:16:50.291Z,10.00
2017-08-25T04:17:51.015Z,12.00
2017-08-25T04:18:51.737Z,12.00
2017-08-25T04:19:52.463Z,11.00
2017-08-25T04:20:53.184Z,11.00
2017-08-25T04:21:53.909Z,10.00
2017-08-25T04:22:54.633Z,11.00
2017-08-25T04:23:55.357Z,13.00
2017-08-25T04:24:56.080Z,12.00
2017-08-25T04:25:56.803Z,11.00
2017-08-25T04:26:57.547Z,12.00
2017-08-25T04:27:58.271Z,14.00
2017-08-25T04:28:58.994Z,12.00
2017-08-25T04:29:59.716Z,14.00
2017-08-25T04:31:00.443Z,13.00
2017-08-25T04:32:01.167Z,13.00
2017-08-25T04:33:01.892Z,12.00
2017-08-25T04:34:02.617Z,14.00
2017-08-25T04:35:03.339Z,14.00
2017-08-25T04:36:04.067Z,14.00
2017-08-25T04:37:04.812Z,13.00
2017-08-25T04:38:05.558Z,13.00
2017-08-25T04:39:06.286Z,13.00
2017-08-25T04:40:07.010Z,13.00
2017-08-25T04:41:07.734Z,15.00
2017-08-25T04:42:08.459Z,14.00
2017-08-25T04:43:09.186Z,13.00
2017-08-25T04:44:09.909Z,14.00
2017-08-25T04:45:10.655Z,12.00
2017-08-25T04:46:11.380Z,14.00
2017-08-25T04:47:12.111Z,15.00
2017-08-25T04:48:12.831Z,13.00
2017-08-25T04:49:13.554Z,13.00
2017-08-25T04:50:14.282Z,14.00
2017-08-25T04:51:15.007Z,14.00
2017-08-25T04:52:15.735Z,15.00
2017-08-25T04:53:16.457Z,14.00
2017-08-25T04:54:17.187Z,13.00
2017-08-25T04:55:19.151Z,13.00
2017-08-25T04:56:19.878Z,14.00
2017-08-25T04:57:20.604Z,12.00
2017-08-25T05:03:09.104Z,15.00
2017-08-25T05:05:11.557Z,14.00
2017-08-25T08:49:34.031Z,4.00
2017-08-25T08:50:34.767Z,6.00
2017-08-25T08:51:35.528Z,6.00
2017-08-25T08:52:36.274Z,4.00
2017-08-25T08:53:37.014Z,5.00
2017-08-25T08:54:37.755Z,5.00
2017-08-25T08:55:38.493Z,4.00
2017-08-25T08:56:39.237Z,5.00
2017-08-25T08:57:39.978Z,5.00
2017-08-25T08:58:40.719Z,5.00
2017-08-25T08:59:41.463Z,4.00
2017-08-25T09:00:42.210Z,4.00
2017-08-25T09:01:42.945Z,4.00
2017-08-25T09:02:43.702Z,4.00
2017-08-25T09:03:44.468Z,4.00
2017-08-25T09:04:45.210Z,3.00
2017-08-25T09:05:45.966Z,4.00
2017-08-25T09:06:46.700Z,4.00
2017-08-25T09:07:47.439Z,3.00
2017-08-25T09:08:48.185Z,4.00
2017-08-25T09:09:48.950Z,4.00
2017-08-25T09:10:49.694Z,9.00
2017-08-25T09:11:50.444Z,5.00
2017-08-25T09:12:51.191Z,4.00
2017-08-25T09:13:51.956Z,3.00
2017-08-25T09:14:52.709Z,4.00
2017-08-25T09:15:53.456Z,3.00
2017-08-25T09:16:54.200Z,4.00
2017-08-25T09:17:54.947Z,4.00
2017-08-25T09:18:55.722Z,4.00
2017-08-25T09:19:56.470Z,4.00
2017-08-25T09:20:57.221Z,4.00
2017-08-25T09:21:57.977Z,3.00
2017-08-25T09:22:58.745Z,3.00
2017-08-25T09:23:59.472Z,3.00
2017-08-25T09:25:00.245Z,4.00
2017-08-25T09:26:01.000Z,4.00
2017-08-25T09:27:01.779Z,5.00
2017-08-25T09:28:02.550Z,3.00
2017-08-25T09:29:03.302Z,4.00
2017-08-25T09:30:04.052Z,5.00
2017-08-25T09:31:04.808Z,5.00
2017-08-25T09:32:05.563Z,5.00
2017-08-25T09:33:06.311Z,3.00
2017-08-25T09:34:07.066Z,3.00
2017-08-25T09:35:07.819Z,4.00
2017-08-25T09:36:08.573Z,4.00
2017-08-25T09:37:09.321Z,5.00
2017-08-25T09:38:10.089Z,4.00
2017-08-25T09:39:10.841Z,3.00
2017-08-25T09:40:11.611Z,5.00
2017-08-25T09:41:12.360Z,4.00
2017-08-25T09:42:13.131Z,4.00
2017-08-25T09:43:13.883Z,6.00
2017-08-25T09:44:14.633Z,4.00
2017-08-25T09:45:15.383Z,4.00
2017-08-25T09:46:16.131Z,4.00
2017-08-25T09:47:16.880Z,4.00
2017-08-25T09:48:17.629Z,4.00
2017-08-25T09:49:18.375Z,5.00
2017-08-25T09:50:19.126Z,4.00
2017-08-25T09:51:19.873Z,5.00
2017-08-25T09:52:20.623Z,4.00
2017-08-25T09:53:21.376Z,5.00
2017-08-25T09:54:22.128Z,3.00
2017-08-25T09:55:22.882Z,4.00
2017-08-25T09:56:23.630Z,5.00
2017-08-25T09:57:24.381Z,5.00
2017-08-25T09:58:25.134Z,5.00
2017-08-25T09:59:25.883Z,5.00
2017-08-25T10:00:26.636Z,5.00
2017-08-25T10:01:27.385Z,4.00
2017-08-25T10:02:28.138Z,13.00
2017-08-25T10:03:28.887Z,6.00
2017-08-25T10:04:29.642Z,4.00
2017-08-25T10:05:30.385Z,4.00
2017-08-25T10:06:31.135Z,4.00
2017-08-25T10:07:31.883Z,4.00
2017-08-25T10:08:32.634Z,4.00
2017-08-25T10:09:33.382Z,4.00
2017-08-25T10:10:34.129Z,4.00
2017-08-25T10:11:34.883Z,4.00
2017-08-25T10:12:35.651Z,3.00
2017-08-25T10:13:36.406Z,5.00
2017-08-25T10:14:37.150Z,5.00
2017-08-25T10:15:37.926Z,5.00
2017-08-25T10:16:38.677Z,4.00
2017-08-25T10:17:39.427Z,6.00
2017-08-25T10:18:40.178Z,6.00
2017-08-25T10:19:40.952Z,6.00
2017-08-25T10:20:41.707Z,7.00
2017-08-25T10:21:42.481Z,6.00
2017-08-25T10:22:43.226Z,6.00
2017-08-25T10:23:43.981Z,6.00
2017-08-25T10:24:44.730Z,5.00
2017-08-25T10:25:45.479Z,6.00
2017-08-25T10:26:46.226Z,5.00
2017-08-25T10:27:47.001Z,5.00
2017-08-25T10:28:47.749Z,7.00
2017-08-25T10:29:48.501Z,7.00
2017-08-25T10:30:49.253Z,5.00
2017-08-25T10:31:50.007Z,5.00
2017-08-25T10:32:50.756Z,5.00
2017-08-25T10:33:51.528Z,5.00
2017-08-25T10:34:52.281Z,4.00
2017-08-25T10:35:53.050Z,4.00
2017-08-25T10:36:53.795Z,5.00
2017-08-25T10:37:54.543Z,5.00
2017-08-25T10:38:55.293Z,5.00
2017-08-25T10:39:56.041Z,5.00
2017-08-25T10:40:56.793Z,5.00
2017-08-25T10:41:57.540Z,6.00
2017-08-25T10:42:58.293Z,4.00
2017-08-25T10:43:59.063Z,3.00
2017-08-25T10:44:59.835Z,5.00
2017-08-25T10:46:00.838Z,5.00
2017-08-25T10:47:01.589Z,5.00
2017-08-25T10:48:02.365Z,5.00
2017-08-25T10:49:03.116Z,4.00
2017-08-25T10:50:03.865Z,5.00
2017-08-25T10:51:04.615Z,5.00
2017-08-25T10:52:05.369Z,4.00
2017-08-25T10:53:06.113Z,5.00
2017-08-25T10:54:06.868Z,5.00
2017-08-25T10:55:07.617Z,5.00
2017-08-25T10:56:08.361Z,4.00
2017-08-25T10:57:09.114Z,3.00
2017-08-25T10:58:09.860Z,4.00
2017-08-25T10:59:10.607Z,4.00
2017-08-25T11:00:11.355Z,3.00
2017-08-25T11:01:12.100Z,3.00
2017-08-25T11:02:12.855Z,4.00
2017-08-25T11:03:13.622Z,5.00
2017-08-25T11:04:14.368Z,5.00
2017-08-25T11:05:15.120Z,5.00
2017-08-25T11:06:15.871Z,4.00
2017-08-25T11:07:16.619Z,3.00
2017-08-25T11:08:17.366Z,3.00
2017-08-25T11:09:18.116Z,4.00
2017-08-25T11:10:18.869Z,4.00
2017-08-25T11:11:19.617Z,5.00
2017-08-25T11:12:20.387Z,4.00
2017-08-25T11:13:21.142Z,5.00
2017-08-25T11:14:21.886Z,3.00
2017-08-25T11:15:22.657Z,3.00
2017-08-25T11:16:23.402Z,3.00
2017-08-25T11:17:24.152Z,5.00
2017-08-25T11:18:24.907Z,4.00
2017-08-25T11:19:25.680Z,4.00
2017-08-25T11:20:26.432Z,2.00
2017-08-25T11:21:27.200Z,3.00
2017-08-25T11:22:27.946Z,4.00
2017-08-25T11:23:28.715Z,4.00
2017-08-25T11:24:29.463Z,4.00
2017-08-25T11:25:30.215Z,5.00
2017-08-25T11:26:30.962Z,5.00
2017-08-25T11:27:31.712Z,4.00
2017-08-25T11:28:32.481Z,4.00
2017-08-25T11:29:33.229Z,4.00
2017-08-25T11:30:33.978Z,3.00
2017-08-25T11:31:34.726Z,3.00
2017-08-25T11:32:35.496Z,3.00
2017-08-25T11:33:36.243Z,4.00
2017-08-25T11:34:36.992Z,3.00
2017-08-25T11:35:37.735Z,4.00
2017-08-25T11:36:38.508Z,4.00
2017-08-25T11:37:39.254Z,5.00
2017-08-25T11:38:39.998Z,3.00
2017-08-25T11:39:40.751Z,4.00
2017-08-25T11:40:41.503Z,6.00
2017-08-25T11:41:42.258Z,4.00
2017-08-25T11:42:43.030Z,5.00
2017-08-25T11:43:43.778Z,4.00
2017-08-25T11:44:44.546Z,4.00
2017-08-25T11:45:45.317Z,4.00
2017-08-25T11:46:46.062Z,3.00
2017-08-25T11:47:46.828Z,3.00
2017-08-25T11:48:47.580Z,4.00
2017-08-25T11:49:48.334Z,3.00
2017-08-25T11:50:49.082Z,4.00
2017-08-25T11:51:49.838Z,4.00
2017-08-25T11:52:50.582Z,5.00
2017-08-25T11:53:51.347Z,3.00
2017-08-25T11:54:52.096Z,4.00
2017-08-25T11:55:52.844Z,3.00
2017-08-25T11:56:53.591Z,3.00
2017-08-25T11:57:54.361Z,4.00
2017-08-25T11:58:55.108Z,3.00
2017-08-25T11:59:55.852Z,3.00
2017-08-25T12:00:56.600Z,3.00
2017-08-25T12:01:57.354Z,5.00
2017-08-25T12:02:58.124Z,3.00
2017-08-25T12:03:58.867Z,4.00
2017-08-25T12:04:59.616Z,3.00
2017-08-25T12:06:00.375Z,4.00
2017-08-25T12:07:01.117Z,3.00
2017-08-25T12:08:01.863Z,3.00
2017-08-25T12:09:02.633Z,3.00
2017-08-25T12:10:03.382Z,3.00
2017-08-25T12:11:04.126Z,3.00
2017-08-25T12:12:04.872Z,3.00
2017-08-25T12:13:05.615Z,4.00
2017-08-25T12:14:06.364Z,3.00
2017-08-25T12:15:07.112Z,4.00
2017-08-25T12:16:07.881Z,3.00
2017-08-25T12:17:08.624Z,3.00
2017-08-25T12:18:09.397Z,3.00
2017-08-25T12:19:10.147Z,3.00
2017-08-25T12:20:10.896Z,3.00
2017-08-25T12:21:11.637Z,3.00
2017-08-25T12:22:12.384Z,3.00
2017-08-25T12:23:13.132Z,3.00
2017-08-25T12:24:13.877Z,4.00
2017-08-25T12:25:14.643Z,3.00
2017-08-25T12:26:15.395Z,3.00
2017-08-25T12:27:16.144Z,3.00
2017-08-25T12:28:16.893Z,3.00
2017-08-25T12:29:17.639Z,2.00
2017-08-25T12:30:18.387Z,4.00
2017-08-25T12:31:19.139Z,3.00
2017-08-25T12:32:19.878Z,3.00
2017-08-25T12:33:20.625Z,4.00
2017-08-25T12:34:21.376Z,3.00
2017-08-25T12:35:22.144Z,2.00
2017-08-25T12:36:22.892Z,3.00
2017-08-25T12:37:23.636Z,3.00
2017-08-25T12:38:24.387Z,3.00
2017-08-25T12:39:25.133Z,3.00
2017-08-25T12:40:25.900Z,4.00
2017-08-25T12:41:26.670Z,3.00
2017-08-25T12:42:27.413Z,3.00
2017-08-25T12:43:28.190Z,4.00
2017-08-25T12:44:28.940Z,3.00
2017-08-25T12:45:29.662Z,3.00
2017-08-25T12:46:30.404Z,3.00
2017-08-25T12:47:31.155Z,3.00
2017-08-25T12:48:31.900Z,3.00
2017-08-25T12:49:32.645Z,3.00
2017-08-25T12:50:33.391Z,5.00
2017-08-25T12:51:34.142Z,3.00
2017-08-25T12:52:34.893Z,3.00
2017-08-25T12:53:35.635Z,4.00
2017-08-25T12:54:36.384Z,2.00
2017-08-25T12:55:37.129Z,3.00
2017-08-25T12:56:37.877Z,3.00
2017-08-25T12:57:38.623Z,3.00
2017-08-25T12:58:39.376Z,5.00
2017-08-25T12:59:40.132Z,3.00
2017-08-25T13:00:40.878Z,3.00
2017-08-25T13:01:41.623Z,3.00
2017-08-25T13:02:42.370Z,4.00
2017-08-25T13:03:43.120Z,2.00
2017-08-25T13:04:43.881Z,3.00
2017-08-25T13:05:44.648Z,3.00
2017-08-25T13:06:45.401Z,4.00
2017-08-25T13:07:46.155Z,3.00
2017-08-25T13:08:46.926Z,3.00
2017-08-25T13:09:47.674Z,4.00
2017-08-25T13:10:48.417Z,3.00
2017-08-25T13:11:49.167Z,3.00
2017-08-25T13:12:49.915Z,4.00
2017-08-25T13:13:50.685Z,3.00
2017-08-25T13:14:51.436Z,4.00
2017-08-25T13:15:52.188Z,3.00
2017-08-25T13:16:52.938Z,4.00
2017-08-25T13:17:53.686Z,4.00
2017-08-25T13:18:54.435Z,3.00
2017-08-25T13:19:55.180Z,3.00
2017-08-25T13:20:55.931Z,4.00
2017-08-25T13:21:56.701Z,4.00
2017-08-25T13:22:57.453Z,4.00
2017-08-25T13:23:58.204Z,3.00
2017-08-25T13:24:58.955Z,3.00
2017-08-25T13:25:59.705Z,4.00
2017-08-25T13:27:00.454Z,4.00
2017-08-25T13:28:01.206Z,4.00
2017-08-25T13:29:01.953Z,5.00
2017-08-25T13:30:02.724Z,3.00
2017-08-25T13:31:03.476Z,3.00
2017-08-25T13:32:04.251Z,4.00
2017-08-25T13:33:05.021Z,3.00
2017-08-25T13:34:05.789Z,3.00
2017-08-25T13:35:06.540Z,3.00
2017-08-25T13:36:07.284Z,4.00
2017-08-25T13:37:08.056Z,3.00
2017-08-25T13:38:08.815Z,4.00
2017-08-25T13:39:09.562Z,3.00
2017-08-25T13:40:10.300Z,4.00
2017-08-25T13:41:11.050Z,3.00
2017-08-25T13:42:11.796Z,3.00
2017-08-25T13:43:12.550Z,5.00
2017-08-25T13:44:13.297Z,4.00
2017-08-25T13:45:14.045Z,4.00
2017-08-25T13:46:14.795Z,3.00
2017-08-25T13:47:15.569Z,3.00
2017-08-25T13:48:16.349Z,5.00
2017-08-25T13:49:17.092Z,5.00
2017-08-25T13:50:17.843Z,3.00
2017-08-25T13:51:18.624Z,6.00
2017-08-25T13:52:19.391Z,5.00
2017-08-25T13:53:20.141Z,4.00
2017-08-25T13:54:20.886Z,4.00
2017-08-25T13:55:21.632Z,4.00
2017-08-25T13:56:22.383Z,4.00
2017-08-25T13:57:23.147Z,4.00
2017-08-25T13:58:23.892Z,4.00
2017-08-25T13:59:24.638Z,4.00
2017-08-25T14:00:25.392Z,4.00
2017-08-25T14:01:26.136Z,4.00
2017-08-25T14:02:26.886Z,4.00
2017-08-25T14:03:27.641Z,4.00
2017-08-25T14:04:28.385Z,5.00
2017-08-25T14:05:29.144Z,4.00
2017-08-25T14:06:29.886Z,5.00
2017-08-25T14:07:30.631Z,3.00
2017-08-25T14:08:31.380Z,4.00
2017-08-25T14:09:32.126Z,4.00
2017-08-25T14:10:32.870Z,4.00
2017-08-25T14:11:33.613Z,4.00
2017-08-25T14:12:34.382Z,3.00
2017-08-25T14:13:35.125Z,4.00
2017-08-25T14:14:35.866Z,4.00
2017-08-25T14:15:36.629Z,4.00
2017-08-25T14:16:37.369Z,3.00
2017-08-25T14:17:38.114Z,4.00
2017-08-25T14:18:38.872Z,4.00
2017-08-25T14:19:39.614Z,5.00
2017-08-25T14:20:40.358Z,5.00
2017-08-25T14:21:41.130Z,5.00
2017-08-25T14:22:41.887Z,3.00
2017-08-25T14:23:42.626Z,4.00
2017-08-25T14:24:43.393Z,4.00
2017-08-25T14:25:44.150Z,4.00
2017-08-25T14:26:44.889Z,4.00
2017-08-25T14:27:45.630Z,4.00
2017-08-25T14:28:46.367Z,3.00
2017-08-25T14:29:47.105Z,5.00
2017-08-25T14:30:47.846Z,4.00
2017-08-25T14:31:48.586Z,3.00
2017-08-25T14:32:49.323Z,5.00
2017-08-25T14:33:50.068Z,4.00
2017-08-25T14:34:50.814Z,4.00
2017-08-25T14:35:51.551Z,3.00
2017-08-25T14:36:52.290Z,4.00
2017-08-25T14:37:53.049Z,3.00
2017-08-25T14:38:53.789Z,3.00
2017-08-25T14:39:54.545Z,4.00
2017-08-25T14:40:55.279Z,3.00
2017-08-25T14:41:56.016Z,4.00
2017-08-25T14:42:56.752Z,4.00
2017-08-25T14:43:57.488Z,4.00
2017-08-25T14:44:58.226Z,5.00
2017-08-25T14:45:58.979Z,5.00
2017-08-25T14:46:59.721Z,4.00
2017-08-25T14:48:00.458Z,4.00
2017-08-25T14:49:01.492Z,5.00
2017-08-25T14:50:02.226Z,3.00
2017-08-25T14:51:02.994Z,4.00
2017-08-25T14:52:03.726Z,4.00
2017-08-25T14:53:04.466Z,3.00
2017-08-25T14:54:05.217Z,3.00
2017-08-25T14:55:05.956Z,4.00
2017-08-25T14:56:06.694Z,4.00
2017-08-25T14:57:07.449Z,4.00
2017-08-25T14:58:08.188Z,4.00
2017-08-25T14:59:08.941Z,6.00
2017-08-25T15:00:09.697Z,5.00
2017-08-25T15:01:10.436Z,4.00
2017-08-25T15:02:11.189Z,4.00
2017-08-25T15:03:11.954Z,4.00
2017-08-25T15:04:12.709Z,4.00
2017-08-25T15:05:13.470Z,4.00
2017-08-25T15:06:14.228Z,4.00
2017-08-25T15:07:14.964Z,4.00
2017-08-25T15:08:15.719Z,3.00
2017-08-25T15:09:16.476Z,5.00
2017-08-25T15:10:17.221Z,4.00
2017-08-25T15:11:17.970Z,4.00
2017-08-25T15:12:18.769Z,4.00
2017-08-25T15:13:19.504Z,5.00
2017-08-25T15:14:20.259Z,4.00
2017-08-25T15:15:20.995Z,5.00
2017-08-25T15:16:21.766Z,4.00
2017-08-25T15:17:22.493Z,4.00
2017-08-25T15:18:23.229Z,4.00
2017-08-25T15:19:23.962Z,4.00
2017-08-25T15:20:24.696Z,4.00
2017-08-25T15:21:25.457Z,5.00
2017-08-25T15:22:26.211Z,4.00
2017-08-25T15:23:26.948Z,5.00
2017-08-25T15:24:27.677Z,4.00
2017-08-25T15:25:28.435Z,4.00
2017-08-25T15:26:29.187Z,4.00
2017-08-25T15:27:29.920Z,4.00
2017-08-25T15:28:30.654Z,4.00
2017-08-25T15:29:31.386Z,4.00
2017-08-25T15:30:32.141Z,4.00
2017-08-25T15:31:32.897Z,3.00
2017-08-25T15:32:33.636Z,5.00
2017-08-25T15:33:34.386Z,3.00
2017-08-25T15:34:35.120Z,4.00
2017-08-25T15:35:35.877Z,4.00
2017-08-25T15:36:36.612Z,5.00
2017-08-25T15:37:37.348Z,4.00
2017-08-25T15:38:38.082Z,5.00
2017-08-25T15:39:38.836Z,4.00
2017-08-25T15:40:39.573Z,4.00
2017-08-25T15:41:40.304Z,5.00
2017-08-25T15:42:41.041Z,3.00
2017-08-25T15:43:41.776Z,4.00
2017-08-25T15:44:42.510Z,3.00
2017-08-25T15:45:43.263Z,5.00
2017-08-25T15:46:44.017Z,4.00
2017-08-25T15:47:44.754Z,4.00
2017-08-25T15:48:45.487Z,4.00
2017-08-25T15:49:46.239Z,4.00
2017-08-25T15:50:46.971Z,5.00
2017-08-25T15:51:47.705Z,4.00
2017-08-25T15:52:48.502Z,3.00
2017-08-25T15:53:49.250Z,3.00
2017-08-25T15:54:49.975Z,4.00
2017-08-25T15:55:50.709Z,3.00
2017-08-25T15:56:51.445Z,4.00
2017-08-25T15:57:52.189Z,5.00
2017-08-25T15:58:52.990Z,5.00
2017-08-25T15:59:53.764Z,5.00
2017-08-25T16:00:54.530Z,3.00
2017-08-25T16:01:55.275Z,4.00
2017-08-25T16:02:56.022Z,3.00
2017-08-25T16:03:56.756Z,4.00
2017-08-25T16:04:57.491Z,3.00
2017-08-25T16:05:58.279Z,6.00
2017-08-25T16:06:59.023Z,4.00
2017-08-25T16:07:59.758Z,3.00
2017-08-25T16:09:00.491Z,5.00
2017-08-25T16:10:01.222Z,13.00
2017-08-25T16:11:01.977Z,7.00
2017-08-25T16:12:02.712Z,37.00
2017-08-25T16:13:03.464Z,60.00
2017-08-25T16:14:04.200Z,12.00
2017-08-25T16:15:04.955Z,7.00
2017-08-25T16:16:05.688Z,5.00
2017-08-25T16:17:06.438Z,4.00
2017-08-25T16:18:07.177Z,4.00
2017-08-25T16:19:07.905Z,5.00
2017-08-25T16:20:08.639Z,4.00
2017-08-25T16:21:09.368Z,4.00
2017-08-25T16:22:10.107Z,3.00
2017-08-25T16:23:10.839Z,4.00
2017-08-25T16:24:11.587Z,4.00
2017-08-25T16:25:12.325Z,4.00
2017-08-25T16:26:13.071Z,4.00
2017-08-25T16:27:13.800Z,4.00
2017-08-25T16:28:14.556Z,3.00
2017-08-25T16:29:15.288Z,4.00
2017-08-25T16:30:16.030Z,5.00
2017-08-25T16:31:16.783Z,5.00
2017-08-25T16:32:17.516Z,4.00
2017-08-25T16:33:18.252Z,3.00
2017-08-25T16:34:18.981Z,4.00
2017-08-25T16:35:19.733Z,4.00
2017-08-25T16:36:20.482Z,5.00
2017-08-25T16:37:21.202Z,3.00
2017-08-25T16:38:21.934Z,4.00
2017-08-25T16:39:22.664Z,4.00
2017-08-25T16:40:23.396Z,4.00
2017-08-25T16:41:24.139Z,4.00
2017-08-25T16:42:24.860Z,3.00
2017-08-25T16:43:25.594Z,6.00
2017-08-25T16:44:26.324Z,4.00
2017-08-25T16:45:27.056Z,3.00
2017-08-25T16:46:27.783Z,4.00
2017-08-25T16:47:28.534Z,4.00
2017-08-25T16:48:29.282Z,5.00
2017-08-25T16:49:30.013Z,4.00
2017-08-25T16:50:30.743Z,4.00
2017-08-25T16:51:31.471Z,4.00
2017-08-25T16:52:32.221Z,3.00
2017-08-25T16:53:32.950Z,4.00
2017-08-25T16:54:33.682Z,4.00
2017-08-25T16:55:34.408Z,5.00
2017-08-25T16:56:35.141Z,3.00
2017-08-25T16:57:35.897Z,4.00
2017-08-25T16:58:36.653Z,3.00
2017-08-25T16:59:37.406Z,4.00
2017-08-25T17:00:38.139Z,4.00
2017-08-25T17:01:38.894Z,5.00
2017-08-25T17:02:39.653Z,5.00
2017-08-25T17:03:40.399Z,4.00
2017-08-25T17:04:41.133Z,5.00
2017-08-25T17:05:41.864Z,5.00
2017-08-25T17:06:42.593Z,4.00
2017-08-25T17:07:43.325Z,3.00
2017-08-25T17:08:44.055Z,4.00
2017-08-25T17:09:44.784Z,5.00
2017-08-25T17:10:45.518Z,5.00
2017-08-25T17:11:46.274Z,4.00